EC1KV-2
43.34.01N 006.16.01W
IN63UN aprs.fi
zuletzt gehoert:
2020-08-09T17:38:50Z
zuerst gehoert:
2020-02-10T14:58:02Z

APRS Cudillero [IN63UN], 0 Stunde(n), EC1KV-2 [14:32:08, 0s].
EC1KV 43.34.01N 006.16.01WIN63UN 0.009km 324°NW12:29:39Z VOLT.=13.3 V - TEMP.=??.? C(3EC1KV-1)
EA1DHE 43.33.98N 005.58.57WIN73AN 23.410km 90°E12:04:06ZMMDVM DVS 434.3500/434.3500 CC1
EA1IZV 43.33.25N 005.55.92WIN73AN 26.993km 93°E12:30:05ZEn proceso...
LETN 43.20.05N 006.22.69WIN63TI 27.383km 199°SSW12:30:07ZAerodromo de La Curiscada (Tineo): LEAS 241200Z 04007KT 350V090 9999 FEW025 17/12 Q1025 NOSIG=
ED1ZAY 43.29.47N 005.56.54WIN73AL 27.450km 108°ESE12:04:33ZRD625 438.3000/430.7000 CC1
EA1AHA 43.32.72N 005.54.38WIN73BN 29.136km 95°E12:26:43ZWind 090°/007kn, Böen bis 010kn, Temp 20.00c, Regen 0.0mm, letzte 24h 0.0mm, seit 0h 0.0mm, Baro 1026.4h, Hum: 56%(3EA1AHA-13)
ED1YBE 43.29.09N 006.38.69WIN63QL 31.803km 254°WSW12:29:35ZWIDE3-3 ESAS3-3 UIDIGI(3ED1YBE-3)
ED1ZAU 43.23.04N 005.52.75WIN73BJ 37.281km 123°ESE12:04:21ZRD625 438.5000/430.9000 CC1
LEGM 43.26.15N 005.49.84WIN73CK 38.055km 112°ESE12:30:06ZHelipuerto de La Morgal: LEAS 241200Z 04007KT 350V090 9999 FEW025 17/12 Q1025 NOSIG=
LEMR 43.25.83N 005.49.60WIN73CK 38.578km 113°ESE12:30:07ZAerodromo de la Morgal: LEAS 241200Z 04007KT 350V090 9999 FEW025 17/12 Q1025 NOSIG=
EA1YR 43.22.09N 005.51.86WIN73BI 39.246km 124°SE12:03:47ZMMDVM DVS 434.3500/434.3500 CC1
EA1HJA 43.21.47N 005.52.09WIN73BI 39.654km 126°SE12:25:36ZEA1HJA@URE.ES
EA1JAY 43.21.54N 005.51.34WIN73BI 40.412km 125°SE12:30:08Z434.525MHz Nodo TETRA DMO(3EA1JAY-4)
33D00 43.21.63N 005.51.13WIN73BI 40.561km 124°SE12:01:43Z33-D-00 Protección Civil REMER / Delegación del Gobierno en Asturias
EA1JBL 43.24.50N 005.48.23WIN73CJ 41.279km 115°ESE12:24:14Z*Jose*(3EA1JBL-7)
LEHU 43.22.63N 005.49.57WIN73CJ 41.317km 121°ESE12:30:06ZHelipuerto del HUCA: LEAS 241200Z 04007KT 350V090 9999 FEW025 17/12 Q1025 NOSIG=
EA1IN 43.25.16N 005.47.43WIN73CK 41.752km 113°ESE12:03:58ZMMDVM MMDVM HS Hat 434.7000/434.7000 CC1
EA1L 43.20.37N 005.51.13WIN73BI 41.918km 127°SE12:30:09Zea1l@ure.es V=11.7V,T=??.?C
Wind 014°/010kn, Böen bis 016kn, Temp 19.44c, Regen 0.0mm, letzte 24h 0.0mm, seit 0h 0.0mm, Baro 1022.6h, Hum: 69%(2EA1L-13)
EA1IPU 43.25.79N 005.46.19WIN73CK 42.851km 111°ESE12:01:04ZMMDVM MMDVM HS Hat 438.8000/438.8000 CC1
EB1TK 43.32.22N 005.42.32WIN73DM 45.357km 94°E12:25:17ZWind 042°/010kn, Böen bis 015kn, Temp 17.78c, Regen 0.0mm, letzte 24h 0.0mm, seit 0h 0.0mm, Baro 1028.2h, Hum: 76%(3EB1TK-13)
LEEL 43.32.98N 005.41.71WIN73DN 46.078km 92°E12:30:07ZHelipuerto de El Musel: LEAS 241200Z 04007KT 350V090 9999 FEW025 17/12 Q1025 NOSIG=
EA1IEJ 43.31.81N 005.40.64WIN73DM 47.669km 95°E12:31:21ZMMDVM MMDVM HS Hat 438.8500/438.8500 CC6
EA1FFA 43.31.53N 005.40.64WIN73DM 47.718km 95°E12:03:10ZMMDVM MMDVM HS Hat 438.8000/438.8000 CC1
EA1DZR 43.31.47N 005.40.00WIN73DM 48.573km 95°E12:04:10ZMMDVM DVMega 431.1000/431.1000 CC1
ED1YBD 43.09.56N 006.29.74WIN63SD 48.930km 202°SSW12:27:05Z1200 M. ALTO DEL ACEBO (C. DEL NARCEA)(3ED1YBD-3)
ED1ZAE 43.27.99N 005.40.54WIN73DL 48.929km 103°ESE12:28:36ZWIDE3-3 ESAS3-3 IN73DL WWW.EA1URG.ORG(3ED1ZAE-3)
ED1ZAS 43.27.52N 005.40.17WIN73DL 49.616km 104°ESE12:04:26ZRD985 438.2250/430.6250 CC1

aprs.pl 5.0.011w DL3EL © 2006-2021 [496407]